Bautista Pino — EASK — position and weather

sailwx.info

Track history (hours):
 
Tides and Currents Weather Stations Pressure Air Temp Water Temp Dewpoint Dewpoint Depression Visibility Wind Speed Wind Dir Waves Ship Positions

Bautista Pino

Last reported at 2016-May-15 22:25 UTC. Time now 2016-May-29 17:24 UTC.
Position N 43°48' W 007°39'.
Warning: this ship's position is 13 days out of date.

Length 29 m; draft 3.5 m.

Type: Fishing. MMSI: 224181290.

Date/timePositionNaut miles runAvg speedWind from/ knotsBaromVisibWave heightAir tempDewpointWater temp
2016-May-15 22:25N 43°48' W 007°39'7 8.2
2016-May-15 21:33N 43°41' W 007°36'0 0.1
2016-May-15 20:34N 43°41' W 007°36'0 0.0
2016-May-13 20:27N 43°41' W 007°36'0 0.0
2016-May-13 19:33N 43°41' W 007°36'4 3.6
2016-May-13 18:33N 43°44' W 007°36'14 9.5
2016-May-13 17:03N 43°51' W 007°53'5 9.8
2016-May-13 16:33N 43°53' W 007°60'  
2016-May-08 22:32N 43°47' W 007°38'6 6.3
2016-May-08 21:33N 43°41' W 007°36'0 0.0
2016-May-08 20:33N 43°41' W 007°36'0 0.0
2016-May-06 21:33N 43°41' W 007°36'0 0.0
2016-May-06 20:34N 43°41' W 007°36'4 3.8
2016-May-06 19:33N 43°45' W 007°36'6 6.1
2016-May-06 18:33N 43°49' W 007°42'  
Track history (hours):
 
Tides and Currents Weather Stations Pressure Air Temp Water Temp Dewpoint Dewpoint Depression Visibility Wind Speed Wind Dir Waves Ship Positions

Bautista Pino

Last reported at 2016-May-15 22:25 UTC. Time now 2016-May-29 17:24 UTC.
Position N 43°48' W 007°39'.
Warning: this ship's position is 13 days out of date.

Length 29 m; draft 3.5 m.

Type: Fishing. MMSI: 224181290.

Date/timePositionNaut miles runAvg speedWind from/ knotsBaromVisibWave heightAir tempDewpointWater temp
2016-May-15 22:25N 43°48' W 007°39'7 8.2
2016-May-15 21:33N 43°41' W 007°36'0 0.1
2016-May-15 20:34N 43°41' W 007°36'0 0.0
2016-May-13 20:27N 43°41' W 007°36'0 0.0
2016-May-13 19:33N 43°41' W 007°36'4 3.6
2016-May-13 18:33N 43°44' W 007°36'14 9.5
2016-May-13 17:03N 43°51' W 007°53'5 9.8
2016-May-13 16:33N 43°53' W 007°60'  
2016-May-08 22:32N 43°47' W 007°38'6 6.3
2016-May-08 21:33N 43°41' W 007°36'0 0.0
2016-May-08 20:33N 43°41' W 007°36'0 0.0
2016-May-06 21:33N 43°41' W 007°36'0 0.0
2016-May-06 20:34N 43°41' W 007°36'4 3.8
2016-May-06 19:33N 43°45' W 007°36'6 6.1
2016-May-06 18:33N 43°49' W 007°42'  

Dump ship's entire track history